createdAt,value
2018-06-03T00:00:25.841Z,4.37
2018-06-03T00:05:19.248Z,4.10
2018-06-03T00:10:13.320Z,3.97
2018-06-03T00:15:06.683Z,4.00
2018-06-03T00:19:59.969Z,4.50
2018-06-03T00:24:53.257Z,4.07
2018-06-03T00:29:46.577Z,3.80
2018-06-03T00:34:39.974Z,4.13
2018-06-03T00:39:33.329Z,4.33
2018-06-03T00:44:30.173Z,4.40
2018-06-03T00:49:23.479Z,4.30
2018-06-03T00:54:16.764Z,4.20
2018-06-03T00:59:10.036Z,3.50
2018-06-03T01:04:04.371Z,3.63
2018-06-03T01:08:57.640Z,3.67
2018-06-03T01:13:50.922Z,4.00
2018-06-03T01:18:44.237Z,3.90
2018-06-03T01:23:37.592Z,4.00
2018-06-03T01:28:30.870Z,3.87
2018-06-03T01:33:24.157Z,4.40
2018-06-03T01:38:17.433Z,4.30
2018-06-03T01:43:10.744Z,4.23
2018-06-03T01:48:04.793Z,3.93
2018-06-03T01:52:58.528Z,3.97
2018-06-03T01:57:51.802Z,4.27
2018-06-03T02:02:45.863Z,3.77
2018-06-03T02:07:39.136Z,4.33
2018-06-03T02:12:32.443Z,4.23
2018-06-03T02:17:27.364Z,3.97
2018-06-03T02:22:21.409Z,4.83
2018-06-03T02:27:14.685Z,4.30
2018-06-03T02:32:07.976Z,4.23
2018-06-03T02:37:01.271Z,4.00
2018-06-03T02:41:54.571Z,4.40
2018-06-03T02:46:48.624Z,4.10
2018-06-03T02:51:42.103Z,5.03
2018-06-03T02:56:35.386Z,5.50
2018-06-03T03:01:28.669Z,4.80
2018-06-03T03:06:21.937Z,5.40
2018-06-03T03:11:15.265Z,5.13
2018-06-03T03:16:08.554Z,5.80
2018-06-03T03:21:01.874Z,5.20
2018-06-03T03:25:55.168Z,5.23
2018-06-03T03:30:48.465Z,5.17
2018-06-03T03:35:42.508Z,4.43
2018-06-03T03:40:35.797Z,5.50
2018-06-03T03:45:29.067Z,5.10
2018-06-03T03:50:22.355Z,5.23
2018-06-03T03:55:15.642Z,5.20
2018-06-03T04:00:08.938Z,4.30
2018-06-03T04:05:02.244Z,4.90
2018-06-03T04:09:55.541Z,4.67
2018-06-03T04:14:48.833Z,4.20
2018-06-03T04:19:42.104Z,4.30
2018-06-03T04:24:35.395Z,4.53
2018-06-03T04:29:28.762Z,5.20
2018-06-03T04:34:22.053Z,4.82
2018-06-03T04:39:15.473Z,4.90
2018-06-03T04:44:09.520Z,5.00
2018-06-03T04:49:02.806Z,4.45
2018-06-03T04:53:56.090Z,4.40
2018-06-03T04:58:49.374Z,3.60
2018-06-03T05:03:42.676Z,4.05
2018-06-03T05:08:36.739Z,3.78
2018-06-03T05:13:30.030Z,3.40
2018-06-03T05:18:24.117Z,3.80
2018-06-03T05:23:17.403Z,3.12
2018-06-03T05:28:10.693Z,3.67
2018-06-03T05:33:03.966Z,3.05
2018-06-03T05:37:57.299Z,3.35
2018-06-03T05:42:51.301Z,3.22
2018-06-03T05:47:44.601Z,3.30
2018-06-03T05:52:37.881Z,3.50
2018-06-03T05:57:31.173Z,3.47
2018-06-03T06:02:24.445Z,3.90
2018-06-03T06:07:17.737Z,3.80
2018-06-03T06:12:11.784Z,3.72
2018-06-03T06:17:05.070Z,3.78
2018-06-03T06:21:58.638Z,3.10
2018-06-03T06:26:51.933Z,3.97
2018-06-03T06:31:45.209Z,3.80
2018-06-03T06:36:38.513Z,3.60
2018-06-03T06:41:31.795Z,3.95
2018-06-03T06:46:25.101Z,3.47
2018-06-03T06:51:18.376Z,3.95
2018-06-03T06:56:11.671Z,4.30
2018-06-03T07:01:04.989Z,4.70
2018-06-03T07:05:58.257Z,4.22
2018-06-03T07:10:51.545Z,4.20
2018-06-03T07:15:44.846Z,4.25
2018-06-03T07:20:38.149Z,5.00
2018-06-03T07:25:31.440Z,4.57
2018-06-03T07:30:25.124Z,4.57
2018-06-03T07:35:18.463Z,3.30
2018-06-03T07:40:11.757Z,4.22
2018-06-03T07:45:05.847Z,4.12
2018-06-03T07:49:59.901Z,3.83
2018-06-03T07:54:53.311Z,4.60
2018-06-03T07:59:46.606Z,4.37
2018-06-03T08:04:40.689Z,4.07
2018-06-03T08:09:34.753Z,3.80
2018-06-03T08:14:28.041Z,4.20
2018-06-03T08:19:21.325Z,4.30
2018-06-03T08:24:14.620Z,3.40
2018-06-03T08:34:09.257Z,3.65
2018-06-03T08:39:03.307Z,4.05
2018-06-03T08:43:56.636Z,3.33
2018-06-03T08:48:50.705Z,3.80
2018-06-03T08:53:43.994Z,3.80
2018-06-03T08:58:37.315Z,3.70
2018-06-03T09:03:30.598Z,3.65
2018-06-03T09:08:23.904Z,3.60
2018-06-03T09:13:17.193Z,3.72
2018-06-03T09:18:10.544Z,3.90
2018-06-03T09:23:03.829Z,3.62
2018-06-03T09:27:57.132Z,3.33
2018-06-03T09:32:50.468Z,3.85
2018-06-03T09:37:43.781Z,3.80
2018-06-03T09:42:37.092Z,3.72
2018-06-03T09:47:31.156Z,3.75
2018-06-03T09:52:24.432Z,3.22
2018-06-03T09:57:17.733Z,3.58
2018-06-03T10:02:11.793Z,3.08
2018-06-03T10:07:05.113Z,2.92
2018-06-03T10:11:59.160Z,3.30
2018-06-03T10:16:52.448Z,3.25
2018-06-03T10:21:45.730Z,3.30
2018-06-03T10:26:39.029Z,2.78
2018-06-03T10:31:33.105Z,2.62
2018-06-03T10:36:26.380Z,2.70
2018-06-03T10:41:19.656Z,2.85
2018-06-03T10:46:13.018Z,2.67
2018-06-03T10:51:06.310Z,2.62
2018-06-03T10:55:59.605Z,2.33
2018-06-03T11:00:52.893Z,2.55
2018-06-03T11:05:46.982Z,2.50
2018-06-03T11:10:40.253Z,2.60
2018-06-03T11:15:33.582Z,2.42
2018-06-03T11:20:26.881Z,2.45
2018-06-03T11:25:20.176Z,2.10
2018-06-03T11:30:13.465Z,2.50
2018-06-03T11:35:06.754Z,2.20
2018-06-03T11:40:00.822Z,2.50
2018-06-03T11:44:54.109Z,2.10
2018-06-03T11:49:47.393Z,2.35
2018-06-03T11:54:40.694Z,2.22
2018-06-03T11:59:40.281Z,1.70
2018-06-03T12:04:33.567Z,1.80
2018-06-03T12:09:26.861Z,1.83
2018-06-03T12:14:20.135Z,1.80
2018-06-03T12:19:13.433Z,1.80
2018-06-03T12:24:06.729Z,1.90
2018-06-03T12:29:00.034Z,2.15
2018-06-03T12:33:53.336Z,2.20
2018-06-03T12:38:46.647Z,2.30
2018-06-03T12:43:39.940Z,2.08
2018-06-03T12:48:34.266Z,1.73
2018-06-03T12:53:27.560Z,1.80
2018-06-03T12:58:20.845Z,1.73
2018-06-03T13:03:14.134Z,1.77
2018-06-03T13:08:07.502Z,2.10
2018-06-03T13:13:01.441Z,1.98
2018-06-03T13:17:55.069Z,1.95
2018-06-03T13:22:48.487Z,2.00
2018-06-03T13:27:41.824Z,2.20
2018-06-03T13:32:35.105Z,2.30
2018-06-03T13:37:29.521Z,1.95
2018-06-03T13:42:22.812Z,1.98
2018-06-03T13:47:16.109Z,2.00
2018-06-03T13:52:10.165Z,2.17
2018-06-03T13:57:03.449Z,2.08
2018-06-03T14:01:56.757Z,2.00
2018-06-03T18:32:23.181Z,2.10
2018-06-03T18:37:17.682Z,1.85
2018-06-03T18:42:12.216Z,2.20
2018-06-03T18:47:07.003Z,2.25
2018-06-03T18:52:01.537Z,2.40
2018-06-03T18:56:57.661Z,2.10
2018-06-03T19:01:58.372Z,2.40
2018-06-03T19:06:53.688Z,2.30
2018-06-03T19:11:49.009Z,2.40
2018-06-03T19:16:43.887Z,2.00
2018-06-03T19:21:38.369Z,2.08
2018-06-03T19:26:32.927Z,2.25
2018-06-03T19:31:29.666Z,2.30
2018-06-03T19:36:25.350Z,2.33
2018-06-03T19:41:21.961Z,2.08
2018-06-03T19:46:16.910Z,2.50
2018-06-03T19:51:12.049Z,2.40
2018-06-03T19:56:06.814Z,2.50
2018-06-03T20:01:06.448Z,2.50
2018-06-03T20:06:02.143Z,2.40
2018-06-03T20:10:56.625Z,2.47
2018-06-03T20:15:51.140Z,2.40
2018-06-03T20:20:47.573Z,2.08
2018-06-03T20:25:44.234Z,2.50
2018-06-03T21:09:46.228Z,2.40
2018-06-03T21:14:40.847Z,2.47
2018-06-03T21:19:35.538Z,2.33
2018-06-03T21:24:30.273Z,2.70
2018-06-03T21:29:25.216Z,3.20
2018-06-03T21:34:24.689Z,2.50
2018-06-03T21:39:19.281Z,2.30
2018-06-03T21:44:13.949Z,2.60
2018-06-03T21:49:08.523Z,2.80
2018-06-03T21:54:12.202Z,2.60
2018-06-03T21:59:06.756Z,2.60
2018-06-03T22:04:01.169Z,2.47
2018-06-03T22:08:55.592Z,2.63
2018-06-03T22:13:50.042Z,2.70
2018-06-03T22:18:44.585Z,2.67
2018-06-03T22:23:39.077Z,2.47
2018-06-03T22:28:33.562Z,2.87
2018-06-03T22:33:28.007Z,2.30
2018-06-03T22:38:22.409Z,2.50
2018-06-03T22:43:16.990Z,2.50
2018-06-03T22:48:11.919Z,2.63
2018-06-03T22:53:06.487Z,2.40
2018-06-03T22:58:00.627Z,2.70
2018-06-03T23:03:00.236Z,2.90
2018-06-03T23:07:55.038Z,2.57
2018-06-03T23:12:49.657Z,2.70
2018-06-03T23:17:44.254Z,2.77
2018-06-03T23:22:38.828Z,2.83
2018-06-03T23:27:33.261Z,2.63
2018-06-03T23:32:27.801Z,2.60
2018-06-03T23:37:22.237Z,2.60
2018-06-03T23:42:16.705Z,2.63
2018-06-03T23:47:11.113Z,2.60
2018-06-03T23:52:06.280Z,2.60
2018-06-03T23:57:00.711Z,2.90
